Map

Track Data

SID SEASON NUMBER BASIN SUBBASIN NAME ISO_TIME NATURE LAT LON WMO_WIND WMO_PRES WMO_AGENCY TRACK_TYPE DIST2LAND LANDFALL IFLAG USA_AGENCY USA_ATCF_ID USA_LAT USA_LON USA_RECORD USA_STATUS USA_WIND USA_PRES USA_SSHS USA_R34_NE USA_R34_SE USA_R34_SW USA_R34_NW USA_R50_NE USA_R50_SE USA_R50_SW USA_R50_NW USA_R64_NE USA_R64_SE USA_R64_SW USA_R64_NW USA_POCI USA_ROCI USA_RMW USA_EYE TOKYO_LAT TOKYO_LON TOKYO_GRADE TOKYO_WIND TOKYO_PRES TOKYO_R50_DIR TOKYO_R50_LONG TOKYO_R50_SHORT TOKYO_R30_DIR TOKYO_R30_LONG TOKYO_R30_SHORT TOKYO_LAND CMA_LAT CMA_LON CMA_CAT CMA_WIND CMA_PRES HKO_LAT HKO_LON HKO_CAT HKO_WIND HKO_PRES NEWDELHI_LAT NEWDELHI_LON NEWDELHI_GRADE NEWDELHI_WIND NEWDELHI_PRES NEWDELHI_CI NEWDELHI_DP NEWDELHI_POCI REUNION_LAT REUNION_LON REUNION_TYPE REUNION_WIND REUNION_PRES REUNION_TNUM REUNION_CI REUNION_RMW REUNION_R34_NE REUNION_R34_SE REUNION_R34_SW REUNION_R34_NW REUNION_R50_NE REUNION_R50_SE REUNION_R50_SW REUNION_R50_NW REUNION_R64_NE REUNION_R64_SE REUNION_R64_SW REUNION_R64_NW BOM_LAT BOM_LON BOM_TYPE BOM_WIND BOM_PRES BOM_TNUM BOM_CI BOM_RMW BOM_R34_NE BOM_R34_SE BOM_R34_SW BOM_R34_NW BOM_R50_NE BOM_R50_SE BOM_R50_SW BOM_R50_NW BOM_R64_NE BOM_R64_SE BOM_R64_SW BOM_R64_NW BOM_ROCI BOM_POCI BOM_EYE BOM_POS_METHOD BOM_PRES_METHOD NADI_LAT NADI_LON NADI_CAT NADI_WIND NADI_PRES WELLINGTON_LAT WELLINGTON_LON WELLINGTON_WIND WELLINGTON_PRES DS824_LAT DS824_LON DS824_STAGE DS824_WIND DS824_PRES TD9636_LAT TD9636_LON TD9636_STAGE TD9636_WIND TD9636_PRES TD9635_LAT TD9635_LON TD9635_WIND TD9635_PRES TD9635_ROCI NEUMANN_LAT NEUMANN_LON NEUMANN_CLASS NEUMANN_WIND NEUMANN_PRES MLC_LAT MLC_LON MLC_CLASS MLC_WIND MLC_PRES USA_GUST BOM_GUST BOM_GUST_PER REUNION_GUST REUNION_GUST_PER USA_SEAHGT USA_SEARAD_NE USA_SEARAD_SE USA_SEARAD_SW USA_SEARAD_NW STORM_SPEED STORM_DIR
1995314N25186 1995 89 EP CP COLLEEN 1995-11-10 06:00:00 NR 25.1000 186.200 main 1467 1467 O_____________ jtwc_wp WP311995 25.1000 -173.800 20 -1 14 240
1995314N25186 1995 89 EP CP COLLEEN 1995-11-10 09:00:00 NR 24.7605 185.554 main 1520 1520 P_____________ WP311995 24.7605 -174.446 20 -1 14 239
1995314N25186 1995 89 EP CP COLLEEN 1995-11-10 12:00:00 NR 24.4000 184.900 main 1584 1584 O_____________ jtwc_wp WP311995 24.4000 -175.100 20 -1 14 238
1995314N25186 1995 89 EP CP COLLEEN 1995-11-10 15:00:00 NR 24.0074 184.235 main 1651 1651 P_____________ WP311995 24.0074 -175.765 20 -1 14 236
1995314N25186 1995 89 EP CP COLLEEN 1995-11-10 18:00:00 NR 23.6000 183.600 main 1709 1709 O_____________ jtwc_wp WP311995 23.6000 -176.400 20 -1 13 235
1995314N25186 1995 89 EP CP COLLEEN 1995-11-10 21:00:00 NR 23.2517 183.074 main 1759 1759 P_____________ WP311995 23.2517 -176.926 20 -1 13 232
1995314N25186 1995 89 EP CP COLLEEN 1995-11-11 00:00:00 NR 22.8000 182.500 main 1820 1820 O_____________ jtwc_wp WP311995 22.8000 -177.500 20 -1 17 227
1995314N25186 1995 89 EP CP COLLEEN 1995-11-11 03:00:00 NR 22.0877 181.729 main 1904 1904 P_____________ WP311995 22.0877 -178.271 22 -1 21 225
1995314N25186 1995 89 EP CP COLLEEN 1995-11-11 06:00:00 NR 21.3000 180.900 main 1994 1994 O_____________ jtwc_wp WP311995 21.3000 -179.100 25 -1 21 227
1995314N25186 1995 89 EP CP COLLEEN 1995-11-11 09:00:00 NR 20.6426 180.090 main 2086 2086 P_____________ WP311995 20.6426 -179.910 25 -1 18 226
1995314N25186 1995 89 WP MM COLLEEN 1995-11-11 12:00:00 NR 20.0400 179.520 main 2158 2158 O__O__________ jtwc_wp WP311995 20.0000 179.400 25 -1 20.2000 180.000 TD 30 1000 15 213
1995314N25186 1995 89 WP MM COLLEEN 1995-11-11 15:00:00 NR 19.3972 179.223 main 2201 2201 P__P__________ WP311995 19.2996 178.926 25 -1 19.5925 179.817 TD 30 1000 14 200
1995314N25186 1995 89 WP MM COLLEEN 1995-11-11 18:00:00 NR 18.7714 179.029 main 2236 2236 O__O__________ jtwc_wp WP311995 18.6000 178.600 25 -1 19.0000 179.600 TD 30 1000 13 197
1995314N25186 1995 89 WP MM COLLEEN 1995-11-11 21:00:00 NR 18.1775 178.818 main 2272 2272 P__P__________ WP311995 17.9199 178.313 27 -1 18.4350 179.323 TD 30 1000 13 201
1995314N25186 1995 89 WP MM COLLEEN 1995-11-12 00:00:00 NR 17.6000 178.550 main 2310 2310 O__O__________ jtwc_wp WP311995 17.3000 178.100 30 -1 17.9000 179.000 TD 30 1000 12 203
1995314N25186 1995 89 WP MM COLLEEN 1995-11-12 03:00:00 NR 17.0324 178.319 main 2360 2360 P__P__________ WP311995 16.7099 177.950 32 -1 17.3548 178.688 TD 30 1000 11 206
1995314N25186 1995 89 WP MM COLLEEN 1995-11-12 06:00:00 NR 16.6000 178.050 main 2393 2393 O__O__________ jtwc_wp WP311995 16.3000 177.800 35 0 16.9000 178.300 TD 30 1000 9 221
1995314N25186 1995 89 WP MM COLLEEN 1995-11-12 09:00:00 NR 16.3561 177.699 main 2441 2441 P__P__________ WP311995 16.1598 177.610 35 0 16.5525 177.787 TD 27 1002 8 248
1995314N25186 1995 89 WP MM COLLEEN 1995-11-12 12:00:00 NR 16.2857 177.257 main 2485 2485 O__O__________ jtwc_wp WP311995 16.2000 177.300 35 0 16.4000 177.200 TD 25 1005 9 269
1995314N25186 1995 89 WP MM COLLEEN 1995-11-12 15:00:00 NR 16.3359 176.745 main 2546 2542 P__P__________ WP311995 16.2624 176.817 32 -1 16.4828 176.601 TD 25 1005 11 279
1995314N25186 1995 89 WP MM COLLEEN 1995-11-12 18:00:00 NR 16.4600 176.160 main 2590 2590 O__O__________ jtwc_wp WP311995 16.4000 176.200 30 -1 16.7000 176.000 TD 25 1005 12 282
1995314N25186 1995 89 WP MM COLLEEN 1995-11-12 21:00:00 NR 16.5923 175.538 main 2658 2658 P_____________ WP311995 16.5923 175.538 30 -1 TD 13 285
1995314N25186 1995 89 WP MM COLLEEN 1995-11-13 00:00:00 NR 16.8000 174.800 main 2723 2723 O_____________ jtwc_wp WP311995 16.8000 174.800 30 -1 15 284
1995314N25186 1995 89 WP MM COLLEEN 1995-11-13 03:00:00 NR 16.9656 174.013 main 2798 2798 P_____________ WP311995 16.9656 174.013 25 -1 16 281
1995314N25186 1995 89 WP MM COLLEEN 1995-11-13 06:00:00 NR 17.1000 173.200 main 2877 O_____________ jtwc_wp WP311995 17.1000 173.200 20 -1 16 280

About IBTrACS Database

This database is a web-friendly format of International Best Track Archive for Climate Stewardship (IBTrACS), a global best track data archive curated by NOAA dating back to 1842.

Updated: 2021-12-01